sensor_id;sensor_type;location;lat;lon;timestamp;P1;durP1;ratioP1;P2;durP2;ratioP2
19623;SDS011;9959;49.798;9.928;2022-10-16T00:01:46;2.88;;;1.73;;
19623;SDS011;9959;49.798;9.928;2022-10-16T00:04:15;6.15;;;2.13;;
19623;SDS011;9959;49.798;9.928;2022-10-16T00:06:43;2.88;;;2.00;;
19623;SDS011;9959;49.798;9.928;2022-10-16T00:09:11;11.27;;;2.22;;
19623;SDS011;9959;49.798;9.928;2022-10-16T00:11:41;3.80;;;2.25;;
19623;SDS011;9959;49.798;9.928;2022-10-16T00:14:11;9.98;;;2.97;;
19623;SDS011;9959;49.798;9.928;2022-10-16T00:16:42;6.18;;;1.50;;
19623;SDS011;9959;49.798;9.928;2022-10-16T00:19:10;3.13;;;1.58;;
19623;SDS011;9959;49.798;9.928;2022-10-16T00:21:39;5.47;;;1.50;;
19623;SDS011;9959;49.798;9.928;2022-10-16T00:24:09;2.25;;;1.60;;
19623;SDS011;9959;49.798;9.928;2022-10-16T00:26:37;6.47;;;2.28;;
19623;SDS011;9959;49.798;9.928;2022-10-16T00:29:06;3.90;;;1.80;;
19623;SDS011;9959;49.798;9.928;2022-10-16T00:31:35;3.17;;;1.80;;
19623;SDS011;9959;49.798;9.928;2022-10-16T00:34:04;3.58;;;2.40;;
19623;SDS011;9959;49.798;9.928;2022-10-16T00:36:32;3.83;;;1.85;;
19623;SDS011;9959;49.798;9.928;2022-10-16T00:39:00;2.83;;;1.90;;
19623;SDS011;9959;49.798;9.928;2022-10-16T00:41:28;5.63;;;2.15;;
19623;SDS011;9959;49.798;9.928;2022-10-16T00:44:00;2.55;;;2.08;;
19623;SDS011;9959;49.798;9.928;2022-10-16T00:46:31;4.07;;;1.80;;
19623;SDS011;9959;49.798;9.928;2022-10-16T00:49:05;7.75;;;2.05;;
19623;SDS011;9959;49.798;9.928;2022-10-16T00:51:37;3.20;;;1.73;;
19623;SDS011;9959;49.798;9.928;2022-10-16T00:54:08;3.80;;;1.75;;
19623;SDS011;9959;49.798;9.928;2022-10-16T00:56:39;3.35;;;1.70;;
19623;SDS011;9959;49.798;9.928;2022-10-16T00:59:10;4.13;;;1.67;;
19623;SDS011;9959;49.798;9.928;2022-10-16T01:01:43;2.58;;;2.00;;
19623;SDS011;9959;49.798;9.928;2022-10-16T01:04:13;8.00;;;2.00;;
19623;SDS011;9959;49.798;9.928;2022-10-16T01:06:43;3.42;;;1.90;;
19623;SDS011;9959;49.798;9.928;2022-10-16T01:09:20;3.22;;;2.13;;
19623;SDS011;9959;49.798;9.928;2022-10-16T01:11:57;3.95;;;2.20;;
19623;SDS011;9959;49.798;9.928;2022-10-16T01:14:35;2.13;;;1.73;;
19623;SDS011;9959;49.798;9.928;2022-10-16T01:17:16;4.32;;;1.77;;
19623;SDS011;9959;49.798;9.928;2022-10-16T01:22:48;2.80;;;1.83;;
19623;SDS011;9959;49.798;9.928;2022-10-16T01:25:30;2.40;;;1.60;;
19623;SDS011;9959;49.798;9.928;2022-10-16T01:28:08;2.88;;;1.83;;
19623;SDS011;9959;49.798;9.928;2022-10-16T01:30:40;3.47;;;1.85;;
19623;SDS011;9959;49.798;9.928;2022-10-16T01:33:13;3.78;;;2.30;;
19623;SDS011;9959;49.798;9.928;2022-10-16T01:35:45;3.22;;;1.90;;
19623;SDS011;9959;49.798;9.928;2022-10-16T01:38:21;6.80;;;2.05;;
19623;SDS011;9959;49.798;9.928;2022-10-16T01:40:57;2.28;;;2.05;;
19623;SDS011;9959;49.798;9.928;2022-10-16T01:43:30;2.95;;;1.90;;
19623;SDS011;9959;49.798;9.928;2022-10-16T01:46:02;6.78;;;2.75;;
19623;SDS011;9959;49.798;9.928;2022-10-16T01:48:32;2.38;;;1.45;;
19623;SDS011;9959;49.798;9.928;2022-10-16T01:51:03;3.00;;;1.98;;
19623;SDS011;9959;49.798;9.928;2022-10-16T01:53:35;2.00;;;1.60;;
19623;SDS011;9959;49.798;9.928;2022-10-16T01:56:05;1.73;;;1.58;;
19623;SDS011;9959;49.798;9.928;2022-10-16T01:58:39;1.60;;;1.50;;
19623;SDS011;9959;49.798;9.928;2022-10-16T02:01:11;1.95;;;1.70;;
19623;SDS011;9959;49.798;9.928;2022-10-16T02:03:42;3.35;;;1.95;;
19623;SDS011;9959;49.798;9.928;2022-10-16T02:06:13;2.50;;;1.45;;
19623;SDS011;9959;49.798;9.928;2022-10-16T02:08:41;1.65;;;1.45;;
19623;SDS011;9959;49.798;9.928;2022-10-16T02:11:10;4.20;;;1.45;;
19623;SDS011;9959;49.798;9.928;2022-10-16T02:13:41;1.40;;;1.30;;
19623;SDS011;9959;49.798;9.928;2022-10-16T02:16:13;1.65;;;1.30;;
19623;SDS011;9959;49.798;9.928;2022-10-16T02:18:42;3.65;;;1.50;;
19623;SDS011;9959;49.798;9.928;2022-10-16T02:21:12;1.75;;;1.35;;
19623;SDS011;9959;49.798;9.928;2022-10-16T02:23:49;1.40;;;1.23;;
19623;SDS011;9959;49.798;9.928;2022-10-16T02:26:23;4.15;;;1.25;;
19623;SDS011;9959;49.798;9.928;2022-10-16T02:28:59;1.30;;;1.20;;
19623;SDS011;9959;49.798;9.928;2022-10-16T02:31:31;2.00;;;1.50;;
19623;SDS011;9959;49.798;9.928;2022-10-16T02:34:03;3.00;;;1.63;;
19623;SDS011;9959;49.798;9.928;2022-10-16T02:36:33;3.25;;;1.92;;
19623;SDS011;9959;49.798;9.928;2022-10-16T02:39:03;7.22;;;2.83;;
19623;SDS011;9959;49.798;9.928;2022-10-16T02:41:33;3.92;;;2.15;;
19623;SDS011;9959;49.798;9.928;2022-10-16T02:44:02;3.13;;;1.73;;
19623;SDS011;9959;49.798;9.928;2022-10-16T02:46:31;3.13;;;2.03;;
19623;SDS011;9959;49.798;9.928;2022-10-16T02:48:59;5.15;;;2.40;;
19623;SDS011;9959;49.798;9.928;2022-10-16T02:51:27;4.30;;;2.50;;
19623;SDS011;9959;49.798;9.928;2022-10-16T02:53:56;3.88;;;2.22;;
19623;SDS011;9959;49.798;9.928;2022-10-16T02:56:24;5.30;;;2.15;;
19623;SDS011;9959;49.798;9.928;2022-10-16T02:58:53;4.88;;;2.35;;
19623;SDS011;9959;49.798;9.928;2022-10-16T03:01:22;7.95;;;2.40;;
19623;SDS011;9959;49.798;9.928;2022-10-16T03:03:51;9.13;;;2.55;;
19623;SDS011;9959;49.798;9.928;2022-10-16T03:06:19;4.38;;;1.90;;
19623;SDS011;9959;49.798;9.928;2022-10-16T03:08:48;5.53;;;2.63;;
19623;SDS011;9959;49.798;9.928;2022-10-16T03:11:16;4.43;;;2.15;;
19623;SDS011;9959;49.798;9.928;2022-10-16T03:13:44;3.95;;;2.25;;
19623;SDS011;9959;49.798;9.928;2022-10-16T03:16:13;6.88;;;2.00;;
19623;SDS011;9959;49.798;9.928;2022-10-16T03:18:42;7.15;;;2.42;;
19623;SDS011;9959;49.798;9.928;2022-10-16T03:21:11;4.72;;;2.83;;
19623;SDS011;9959;49.798;9.928;2022-10-16T03:23:39;4.53;;;2.58;;
19623;SDS011;9959;49.798;9.928;2022-10-16T03:26:07;5.32;;;2.90;;
19623;SDS011;9959;49.798;9.928;2022-10-16T03:28:35;6.70;;;2.22;;
19623;SDS011;9959;49.798;9.928;2022-10-16T03:31:03;4.00;;;2.35;;
19623;SDS011;9959;49.798;9.928;2022-10-16T03:33:31;5.05;;;2.42;;
19623;SDS011;9959;49.798;9.928;2022-10-16T03:36:00;4.05;;;2.38;;
19623;SDS011;9959;49.798;9.928;2022-10-16T03:38:28;4.28;;;2.55;;
19623;SDS011;9959;49.798;9.928;2022-10-16T03:40:56;4.20;;;2.30;;
19623;SDS011;9959;49.798;9.928;2022-10-16T03:43:24;2.55;;;2.17;;
19623;SDS011;9959;49.798;9.928;2022-10-16T03:45:52;5.35;;;1.95;;
19623;SDS011;9959;49.798;9.928;2022-10-16T03:48:20;4.07;;;2.38;;
19623;SDS011;9959;49.798;9.928;2022-10-16T03:50:48;3.90;;;2.40;;
19623;SDS011;9959;49.798;9.928;2022-10-16T03:53:19;5.45;;;2.35;;
19623;SDS011;9959;49.798;9.928;2022-10-16T03:55:47;6.28;;;2.05;;
19623;SDS011;9959;49.798;9.928;2022-10-16T03:58:15;7.60;;;2.00;;
19623;SDS011;9959;49.798;9.928;2022-10-16T04:00:44;4.00;;;2.20;;
19623;SDS011;9959;49.798;9.928;2022-10-16T04:03:14;4.75;;;2.45;;
19623;SDS011;9959;49.798;9.928;2022-10-16T04:05:42;6.47;;;2.38;;
19623;SDS011;9959;49.798;9.928;2022-10-16T04:08:10;4.05;;;2.00;;
19623;SDS011;9959;49.798;9.928;2022-10-16T04:10:40;3.35;;;2.00;;
19623;SDS011;9959;49.798;9.928;2022-10-16T04:13:10;3.35;;;2.05;;
19623;SDS011;9959;49.798;9.928;2022-10-16T04:15:39;2.63;;;2.00;;
19623;SDS011;9959;49.798;9.928;2022-10-16T04:18:07;4.40;;;1.83;;
19623;SDS011;9959;49.798;9.928;2022-10-16T04:20:35;3.45;;;2.08;;
19623;SDS011;9959;49.798;9.928;2022-10-16T04:23:03;4.28;;;2.00;;
19623;SDS011;9959;49.798;9.928;2022-10-16T04:25:31;3.40;;;2.00;;
19623;SDS011;9959;49.798;9.928;2022-10-16T04:28:00;2.38;;;1.80;;
19623;SDS011;9959;49.798;9.928;2022-10-16T04:30:28;4.97;;;1.98;;
19623;SDS011;9959;49.798;9.928;2022-10-16T04:32:56;4.78;;;2.10;;
19623;SDS011;9959;49.798;9.928;2022-10-16T04:35:24;5.82;;;2.35;;
19623;SDS011;9959;49.798;9.928;2022-10-16T04:37:52;3.22;;;2.08;;
19623;SDS011;9959;49.798;9.928;2022-10-16T04:40:20;6.88;;;1.92;;
19623;SDS011;9959;49.798;9.928;2022-10-16T04:42:48;3.40;;;2.00;;
19623;SDS011;9959;49.798;9.928;2022-10-16T04:45:17;5.13;;;2.40;;
19623;SDS011;9959;49.798;9.928;2022-10-16T04:47:45;3.58;;;2.30;;
19623;SDS011;9959;49.798;9.928;2022-10-16T04:50:13;3.10;;;2.10;;
19623;SDS011;9959;49.798;9.928;2022-10-16T04:52:41;5.38;;;2.60;;
19623;SDS011;9959;49.798;9.928;2022-10-16T04:55:09;4.35;;;2.30;;
19623;SDS011;9959;49.798;9.928;2022-10-16T04:57:37;4.75;;;2.17;;
19623;SDS011;9959;49.798;9.928;2022-10-16T05:00:05;3.92;;;2.35;;
19623;SDS011;9959;49.798;9.928;2022-10-16T05:02:35;5.68;;;2.28;;
19623;SDS011;9959;49.798;9.928;2022-10-16T05:05:04;3.80;;;2.33;;
19623;SDS011;9959;49.798;9.928;2022-10-16T05:07:32;3.38;;;1.90;;
19623;SDS011;9959;49.798;9.928;2022-10-16T05:10:00;3.38;;;2.10;;
19623;SDS011;9959;49.798;9.928;2022-10-16T05:12:28;9.20;;;2.47;;
19623;SDS011;9959;49.798;9.928;2022-10-16T05:14:56;8.32;;;1.90;;
19623;SDS011;9959;49.798;9.928;2022-10-16T05:17:25;3.47;;;1.80;;
19623;SDS011;9959;49.798;9.928;2022-10-16T05:19:54;4.15;;;1.80;;
19623;SDS011;9959;49.798;9.928;2022-10-16T05:22:22;3.55;;;2.17;;
19623;SDS011;9959;49.798;9.928;2022-10-16T05:24:50;3.90;;;2.50;;
19623;SDS011;9959;49.798;9.928;2022-10-16T05:27:18;3.72;;;1.90;;
19623;SDS011;9959;49.798;9.928;2022-10-16T05:29:46;4.00;;;1.92;;
19623;SDS011;9959;49.798;9.928;2022-10-16T05:32:15;4.95;;;2.10;;
19623;SDS011;9959;49.798;9.928;2022-10-16T05:34:44;6.80;;;2.00;;
19623;SDS011;9959;49.798;9.928;2022-10-16T05:37:13;4.88;;;1.85;;
19623;SDS011;9959;49.798;9.928;2022-10-16T05:39:41;5.40;;;2.30;;
19623;SDS011;9959;49.798;9.928;2022-10-16T05:42:09;4.65;;;2.00;;
19623;SDS011;9959;49.798;9.928;2022-10-16T05:44:37;2.63;;;1.90;;
19623;SDS011;9959;49.798;9.928;2022-10-16T05:47:05;4.95;;;1.70;;
19623;SDS011;9959;49.798;9.928;2022-10-16T05:49:33;4.93;;;2.40;;
19623;SDS011;9959;49.798;9.928;2022-10-16T05:52:04;5.95;;;2.20;;
19623;SDS011;9959;49.798;9.928;2022-10-16T05:54:34;5.18;;;1.80;;
19623;SDS011;9959;49.798;9.928;2022-10-16T05:57:02;3.75;;;1.83;;
19623;SDS011;9959;49.798;9.928;2022-10-16T05:59:32;2.58;;;1.70;;
19623;SDS011;9959;49.798;9.928;2022-10-16T06:02:00;3.55;;;1.80;;
19623;SDS011;9959;49.798;9.928;2022-10-16T06:04:28;2.60;;;1.90;;
19623;SDS011;9959;49.798;9.928;2022-10-16T06:06:57;9.55;;;1.88;;
19623;SDS011;9959;49.798;9.928;2022-10-16T06:09:27;3.88;;;1.90;;
19623;SDS011;9959;49.798;9.928;2022-10-16T06:11:56;5.78;;;2.10;;
19623;SDS011;9959;49.798;9.928;2022-10-16T06:14:24;9.02;;;2.42;;
19623;SDS011;9959;49.798;9.928;2022-10-16T06:16:52;2.35;;;1.73;;
19623;SDS011;9959;49.798;9.928;2022-10-16T06:19:20;6.13;;;2.00;;
19623;SDS011;9959;49.798;9.928;2022-10-16T06:21:49;4.53;;;2.00;;
19623;SDS011;9959;49.798;9.928;2022-10-16T06:24:17;4.80;;;1.85;;
19623;SDS011;9959;49.798;9.928;2022-10-16T06:26:45;3.88;;;1.80;;
19623;SDS011;9959;49.798;9.928;2022-10-16T06:29:15;5.82;;;1.83;;
19623;SDS011;9959;49.798;9.928;2022-10-16T06:31:43;2.42;;;1.52;;
19623;SDS011;9959;49.798;9.928;2022-10-16T06:34:11;8.30;;;2.28;;
19623;SDS011;9959;49.798;9.928;2022-10-16T06:36:40;3.70;;;1.75;;
19623;SDS011;9959;49.798;9.928;2022-10-16T06:39:09;3.97;;;2.00;;
19623;SDS011;9959;49.798;9.928;2022-10-16T06:41:38;5.38;;;2.08;;
19623;SDS011;9959;49.798;9.928;2022-10-16T06:44:06;2.45;;;1.75;;
19623;SDS011;9959;49.798;9.928;2022-10-16T06:46:35;2.20;;;1.90;;
19623;SDS011;9959;49.798;9.928;2022-10-16T06:49:04;2.90;;;1.80;;
19623;SDS011;9959;49.798;9.928;2022-10-16T06:51:32;2.75;;;1.75;;
19623;SDS011;9959;49.798;9.928;2022-10-16T06:54:05;7.55;;;1.90;;
19623;SDS011;9959;49.798;9.928;2022-10-16T06:56:34;5.88;;;2.00;;
19623;SDS011;9959;49.798;9.928;2022-10-16T06:59:03;3.67;;;1.77;;
19623;SDS011;9959;49.798;9.928;2022-10-16T07:01:31;2.42;;;1.90;;
19623;SDS011;9959;49.798;9.928;2022-10-16T07:04:01;2.83;;;1.60;;
19623;SDS011;9959;49.798;9.928;2022-10-16T07:06:31;2.08;;;1.58;;
19623;SDS011;9959;49.798;9.928;2022-10-16T07:09:01;4.40;;;1.50;;
19623;SDS011;9959;49.798;9.928;2022-10-16T07:11:32;4.55;;;1.60;;
19623;SDS011;9959;49.798;9.928;2022-10-16T07:14:00;3.88;;;2.10;;
19623;SDS011;9959;49.798;9.928;2022-10-16T07:16:29;6.07;;;2.03;;
19623;SDS011;9959;49.798;9.928;2022-10-16T07:19:00;4.25;;;1.77;;
19623;SDS011;9959;49.798;9.928;2022-10-16T07:21:31;6.05;;;2.42;;
19623;SDS011;9959;49.798;9.928;2022-10-16T07:24:03;6.25;;;3.00;;
19623;SDS011;9959;49.798;9.928;2022-10-16T07:26:33;2.33;;;1.85;;
19623;SDS011;9959;49.798;9.928;2022-10-16T07:29:02;6.13;;;2.25;;
19623;SDS011;9959;49.798;9.928;2022-10-16T07:31:31;6.95;;;2.50;;
19623;SDS011;9959;49.798;9.928;2022-10-16T07:33:59;9.85;;;2.90;;
19623;SDS011;9959;49.798;9.928;2022-10-16T07:36:29;8.70;;;3.00;;
19623;SDS011;9959;49.798;9.928;2022-10-16T07:38:58;9.77;;;3.65;;
19623;SDS011;9959;49.798;9.928;2022-10-16T07:41:26;7.80;;;2.58;;
19623;SDS011;9959;49.798;9.928;2022-10-16T07:43:54;9.95;;;2.65;;
19623;SDS011;9959;49.798;9.928;2022-10-16T07:46:26;9.38;;;2.92;;
19623;SDS011;9959;49.798;9.928;2022-10-16T07:48:54;7.68;;;2.30;;
19623;SDS011;9959;49.798;9.928;2022-10-16T07:51:23;7.07;;;2.55;;
19623;SDS011;9959;49.798;9.928;2022-10-16T07:53:54;7.15;;;2.42;;
19623;SDS011;9959;49.798;9.928;2022-10-16T07:56:23;7.35;;;2.63;;
19623;SDS011;9959;49.798;9.928;2022-10-16T07:58:51;6.75;;;6.07;;
19623;SDS011;9959;49.798;9.928;2022-10-16T08:01:20;4.20;;;3.08;;
19623;SDS011;9959;49.798;9.928;2022-10-16T08:03:49;3.17;;;2.50;;
19623;SDS011;9959;49.798;9.928;2022-10-16T08:06:18;7.63;;;3.10;;
19623;SDS011;9959;49.798;9.928;2022-10-16T08:08:51;5.60;;;2.25;;
19623;SDS011;9959;49.798;9.928;2022-10-16T08:11:21;4.03;;;2.53;;
19623;SDS011;9959;49.798;9.928;2022-10-16T08:13:49;6.40;;;2.40;;
19623;SDS011;9959;49.798;9.928;2022-10-16T08:16:17;10.40;;;2.20;;
19623;SDS011;9959;49.798;9.928;2022-10-16T08:18:45;5.15;;;2.53;;
19623;SDS011;9959;49.798;9.928;2022-10-16T08:21:14;5.43;;;2.42;;
19623;SDS011;9959;49.798;9.928;2022-10-16T08:23:46;5.57;;;2.85;;
19623;SDS011;9959;49.798;9.928;2022-10-16T08:26:21;13.10;;;4.50;;
19623;SDS011;9959;49.798;9.928;2022-10-16T08:28:49;6.75;;;3.20;;
19623;SDS011;9959;49.798;9.928;2022-10-16T08:31:18;10.48;;;2.92;;
19623;SDS011;9959;49.798;9.928;2022-10-16T08:33:46;7.55;;;3.22;;
19623;SDS011;9959;49.798;9.928;2022-10-16T08:36:14;6.80;;;2.97;;
19623;SDS011;9959;49.798;9.928;2022-10-16T08:38:43;9.75;;;3.20;;
19623;SDS011;9959;49.798;9.928;2022-10-16T08:41:18;4.93;;;2.80;;
19623;SDS011;9959;49.798;9.928;2022-10-16T08:44:21;6.53;;;2.63;;
19623;SDS011;9959;49.798;9.928;2022-10-16T08:46:59;5.72;;;2.30;;
19623;SDS011;9959;49.798;9.928;2022-10-16T08:49:36;3.17;;;2.33;;
19623;SDS011;9959;49.798;9.928;2022-10-16T08:52:13;3.28;;;2.10;;
19623;SDS011;9959;49.798;9.928;2022-10-16T08:54:42;7.18;;;2.40;;
19623;SDS011;9959;49.798;9.928;2022-10-16T08:57:16;2.97;;;2.10;;
19623;SDS011;9959;49.798;9.928;2022-10-16T08:59:49;4.60;;;1.90;;
19623;SDS011;9959;49.798;9.928;2022-10-16T09:02:24;2.63;;;2.05;;
19623;SDS011;9959;49.798;9.928;2022-10-16T09:05:02;3.67;;;2.22;;
19623;SDS011;9959;49.798;9.928;2022-10-16T09:07:59;5.88;;;2.30;;
19623;SDS011;9959;49.798;9.928;2022-10-16T09:10:39;7.65;;;3.47;;
19623;SDS011;9959;49.798;9.928;2022-10-16T09:13:17;6.85;;;2.33;;
19623;SDS011;9959;49.798;9.928;2022-10-16T09:15:53;4.68;;;2.10;;
19623;SDS011;9959;49.798;9.928;2022-10-16T09:18:29;3.45;;;1.85;;
19623;SDS011;9959;49.798;9.928;2022-10-16T09:21:06;5.13;;;2.00;;
19623;SDS011;9959;49.798;9.928;2022-10-16T09:23:41;5.35;;;1.92;;
19623;SDS011;9959;49.798;9.928;2022-10-16T09:26:10;4.68;;;1.85;;
19623;SDS011;9959;49.798;9.928;2022-10-16T09:28:42;2.97;;;2.10;;
19623;SDS011;9959;49.798;9.928;2022-10-16T09:31:12;3.25;;;1.90;;
19623;SDS011;9959;49.798;9.928;2022-10-16T09:33:43;4.13;;;1.90;;
19623;SDS011;9959;49.798;9.928;2022-10-16T09:36:14;4.55;;;1.98;;
19623;SDS011;9959;49.798;9.928;2022-10-16T09:38:42;4.93;;;2.05;;
19623;SDS011;9959;49.798;9.928;2022-10-16T09:41:13;2.17;;;1.92;;
19623;SDS011;9959;49.798;9.928;2022-10-16T09:43:49;6.03;;;2.17;;
19623;SDS011;9959;49.798;9.928;2022-10-16T09:46:26;2.92;;;1.88;;
19623;SDS011;9959;49.798;9.928;2022-10-16T09:48:56;4.38;;;1.90;;
19623;SDS011;9959;49.798;9.928;2022-10-16T09:51:27;5.88;;;2.00;;
19623;SDS011;9959;49.798;9.928;2022-10-16T09:53:58;7.40;;;2.20;;
19623;SDS011;9959;49.798;9.928;2022-10-16T09:56:28;6.60;;;2.60;;
19623;SDS011;9959;49.798;9.928;2022-10-16T09:59:01;4.35;;;2.30;;
19623;SDS011;9959;49.798;9.928;2022-10-16T10:01:37;6.68;;;1.95;;
19623;SDS011;9959;49.798;9.928;2022-10-16T10:04:07;4.30;;;2.35;;
19623;SDS011;9959;49.798;9.928;2022-10-16T10:06:36;4.68;;;2.20;;
19623;SDS011;9959;49.798;9.928;2022-10-16T10:09:19;3.53;;;2.25;;
19623;SDS011;9959;49.798;9.928;2022-10-16T10:11:50;3.78;;;2.30;;
19623;SDS011;9959;49.798;9.928;2022-10-16T10:14:30;5.65;;;2.30;;
19623;SDS011;9959;49.798;9.928;2022-10-16T10:17:13;6.25;;;2.03;;
19623;SDS011;9959;49.798;9.928;2022-10-16T10:19:53;3.90;;;2.10;;
19623;SDS011;9959;49.798;9.928;2022-10-16T10:22:25;5.43;;;2.08;;
19623;SDS011;9959;49.798;9.928;2022-10-16T10:24:57;6.18;;;2.30;;
19623;SDS011;9959;49.798;9.928;2022-10-16T10:27:36;7.90;;;2.90;;
19623;SDS011;9959;49.798;9.928;2022-10-16T10:30:17;5.15;;;3.05;;
19623;SDS011;9959;49.798;9.928;2022-10-16T10:32:49;12.82;;;4.15;;
19623;SDS011;9959;49.798;9.928;2022-10-16T10:35:29;9.45;;;3.70;;
19623;SDS011;9959;49.798;9.928;2022-10-16T10:38:09;9.02;;;3.67;;
19623;SDS011;9959;49.798;9.928;2022-10-16T10:40:51;4.43;;;2.72;;
19623;SDS011;9959;49.798;9.928;2022-10-16T10:43:28;6.40;;;3.47;;
19623;SDS011;9959;49.798;9.928;2022-10-16T10:46:09;10.82;;;3.38;;
19623;SDS011;9959;49.798;9.928;2022-10-16T10:48:51;7.85;;;3.47;;
19623;SDS011;9959;49.798;9.928;2022-10-16T10:51:31;4.10;;;2.60;;
19623;SDS011;9959;49.798;9.928;2022-10-16T10:54:14;5.75;;;2.35;;
19623;SDS011;9959;49.798;9.928;2022-10-16T10:56:50;6.05;;;2.58;;
19623;SDS011;9959;49.798;9.928;2022-10-16T10:59:37;3.15;;;2.38;;
19623;SDS011;9959;49.798;9.928;2022-10-16T11:02:23;3.17;;;2.10;;
19623;SDS011;9959;49.798;9.928;2022-10-16T11:05:12;4.28;;;2.63;;
19623;SDS011;9959;49.798;9.928;2022-10-16T11:07:51;5.85;;;2.53;;
19623;SDS011;9959;49.798;9.928;2022-10-16T11:10:24;2.83;;;1.70;;
19623;SDS011;9959;49.798;9.928;2022-10-16T11:12:58;6.55;;;1.67;;
19623;SDS011;9959;49.798;9.928;2022-10-16T11:15:32;5.60;;;2.65;;
19623;SDS011;9959;49.798;9.928;2022-10-16T11:18:06;2.85;;;1.73;;
19623;SDS011;9959;49.798;9.928;2022-10-16T11:20:37;4.75;;;1.90;;
19623;SDS011;9959;49.798;9.928;2022-10-16T11:23:11;2.25;;;1.50;;
19623;SDS011;9959;49.798;9.928;2022-10-16T11:25:49;6.00;;;2.15;;
19623;SDS011;9959;49.798;9.928;2022-10-16T11:28:19;4.65;;;1.92;;
19623;SDS011;9959;49.798;9.928;2022-10-16T11:30:55;7.63;;;1.80;;
19623;SDS011;9959;49.798;9.928;2022-10-16T11:33:30;2.78;;;1.75;;
19623;SDS011;9959;49.798;9.928;2022-10-16T11:36:04;3.17;;;1.80;;
19623;SDS011;9959;49.798;9.928;2022-10-16T11:38:41;3.22;;;2.10;;
19623;SDS011;9959;49.798;9.928;2022-10-16T11:41:19;2.40;;;2.00;;
19623;SDS011;9959;49.798;9.928;2022-10-16T11:43:53;3.22;;;1.52;;
19623;SDS011;9959;49.798;9.928;2022-10-16T11:46:33;2.30;;;1.45;;
19623;SDS011;9959;49.798;9.928;2022-10-16T11:49:25;4.30;;;1.63;;
19623;SDS011;9959;49.798;9.928;2022-10-16T11:51:59;4.10;;;1.58;;
19623;SDS011;9959;49.798;9.928;2022-10-16T11:54:39;4.55;;;1.67;;
19623;SDS011;9959;49.798;9.928;2022-10-16T11:57:17;2.92;;;1.80;;
19623;SDS011;9959;49.798;9.928;2022-10-16T11:59:49;4.25;;;1.48;;
19623;SDS011;9959;49.798;9.928;2022-10-16T12:02:39;4.43;;;1.50;;
19623;SDS011;9959;49.798;9.928;2022-10-16T12:05:22;2.90;;;1.70;;
19623;SDS011;9959;49.798;9.928;2022-10-16T12:07:59;2.10;;;1.38;;
19623;SDS011;9959;49.798;9.928;2022-10-16T12:10:34;2.45;;;1.33;;
19623;SDS011;9959;49.798;9.928;2022-10-16T12:13:04;3.92;;;1.30;;
19623;SDS011;9959;49.798;9.928;2022-10-16T12:16:03;3.60;;;1.60;;
19623;SDS011;9959;49.798;9.928;2022-10-16T12:18:32;2.65;;;1.83;;
19623;SDS011;9959;49.798;9.928;2022-10-16T12:21:03;5.75;;;1.60;;
19623;SDS011;9959;49.798;9.928;2022-10-16T12:23:33;2.83;;;1.30;;
19623;SDS011;9959;49.798;9.928;2022-10-16T12:26:05;2.45;;;1.30;;
19623;SDS011;9959;49.798;9.928;2022-10-16T12:28:34;3.22;;;1.65;;
19623;SDS011;9959;49.798;9.928;2022-10-16T12:31:04;3.15;;;1.30;;
19623;SDS011;9959;49.798;9.928;2022-10-16T12:33:35;2.80;;;1.42;;
19623;SDS011;9959;49.798;9.928;2022-10-16T12:36:08;5.28;;;1.50;;
19623;SDS011;9959;49.798;9.928;2022-10-16T12:38:45;2.35;;;1.70;;
19623;SDS011;9959;49.798;9.928;2022-10-16T12:41:23;4.82;;;1.70;;
19623;SDS011;9959;49.798;9.928;2022-10-16T12:43:52;4.00;;;1.60;;
19623;SDS011;9959;49.798;9.928;2022-10-16T12:46:22;3.90;;;2.22;;
19623;SDS011;9959;49.798;9.928;2022-10-16T12:49:21;4.28;;;1.90;;
19623;SDS011;9959;49.798;9.928;2022-10-16T12:51:57;4.43;;;1.80;;
19623;SDS011;9959;49.798;9.928;2022-10-16T12:54:27;4.25;;;1.60;;
19623;SDS011;9959;49.798;9.928;2022-10-16T12:57:01;11.95;;;2.97;;
19623;SDS011;9959;49.798;9.928;2022-10-16T12:59:39;6.70;;;1.90;;
19623;SDS011;9959;49.798;9.928;2022-10-16T13:02:32;4.28;;;2.00;;
19623;SDS011;9959;49.798;9.928;2022-10-16T13:05:30;2.10;;;1.80;;
19623;SDS011;9959;49.798;9.928;2022-10-16T13:08:22;5.88;;;1.95;;
19623;SDS011;9959;49.798;9.928;2022-10-16T13:11:03;4.63;;;2.10;;
19623;SDS011;9959;49.798;9.928;2022-10-16T13:13:44;2.30;;;1.80;;
19623;SDS011;9959;49.798;9.928;2022-10-16T13:16:29;9.32;;;2.97;;
19623;SDS011;9959;49.798;9.928;2022-10-16T13:19:10;5.93;;;2.17;;
19623;SDS011;9959;49.798;9.928;2022-10-16T13:21:46;3.80;;;1.50;;
19623;SDS011;9959;49.798;9.928;2022-10-16T13:24:25;6.03;;;1.80;;
19623;SDS011;9959;49.798;9.928;2022-10-16T13:27:10;7.07;;;1.83;;
19623;SDS011;9959;49.798;9.928;2022-10-16T13:29:46;8.55;;;1.52;;
19623;SDS011;9959;49.798;9.928;2022-10-16T13:32:21;2.47;;;1.65;;
19623;SDS011;9959;49.798;9.928;2022-10-16T13:34:50;5.40;;;1.60;;
19623;SDS011;9959;49.798;9.928;2022-10-16T13:37:21;3.38;;;1.73;;
19623;SDS011;9959;49.798;9.928;2022-10-16T13:40:01;7.78;;;2.00;;
19623;SDS011;9959;49.798;9.928;2022-10-16T13:42:35;4.68;;;1.80;;
19623;SDS011;9959;49.798;9.928;2022-10-16T13:45:03;5.43;;;1.77;;
19623;SDS011;9959;49.798;9.928;2022-10-16T13:47:32;3.63;;;1.60;;
19623;SDS011;9959;49.798;9.928;2022-10-16T13:50:02;3.70;;;1.83;;
19623;SDS011;9959;49.798;9.928;2022-10-16T13:52:32;6.28;;;2.10;;
19623;SDS011;9959;49.798;9.928;2022-10-16T13:55:02;8.35;;;1.75;;
19623;SDS011;9959;49.798;9.928;2022-10-16T13:57:31;2.28;;;1.73;;
19623;SDS011;9959;49.798;9.928;2022-10-16T13:59:59;5.70;;;2.47;;
19623;SDS011;9959;49.798;9.928;2022-10-16T14:02:28;1.85;;;1.65;;
19623;SDS011;9959;49.798;9.928;2022-10-16T14:05:01;5.85;;;2.03;;
19623;SDS011;9959;49.798;9.928;2022-10-16T14:07:32;2.25;;;1.80;;
19623;SDS011;9959;49.798;9.928;2022-10-16T14:10:04;3.67;;;1.80;;
19623;SDS011;9959;49.798;9.928;2022-10-16T14:12:34;5.13;;;1.60;;
19623;SDS011;9959;49.798;9.928;2022-10-16T14:15:03;9.73;;;2.00;;
19623;SDS011;9959;49.798;9.928;2022-10-16T14:17:32;3.90;;;1.83;;
19623;SDS011;9959;49.798;9.928;2022-10-16T14:20:03;4.80;;;2.33;;
19623;SDS011;9959;49.798;9.928;2022-10-16T14:22:33;2.17;;;1.70;;
19623;SDS011;9959;49.798;9.928;2022-10-16T14:25:27;4.68;;;1.77;;
19623;SDS011;9959;49.798;9.928;2022-10-16T14:27:57;3.50;;;1.85;;
19623;SDS011;9959;49.798;9.928;2022-10-16T14:30:30;10.35;;;2.30;;
19623;SDS011;9959;49.798;9.928;2022-10-16T14:33:00;4.10;;;2.22;;
19623;SDS011;9959;49.798;9.928;2022-10-16T14:35:31;6.50;;;2.05;;
19623;SDS011;9959;49.798;9.928;2022-10-16T14:38:01;4.90;;;2.20;;
19623;SDS011;9959;49.798;9.928;2022-10-16T14:40:33;5.07;;;2.00;;
19623;SDS011;9959;49.798;9.928;2022-10-16T14:43:03;3.85;;;2.08;;
19623;SDS011;9959;49.798;9.928;2022-10-16T14:45:33;4.05;;;2.17;;
19623;SDS011;9959;49.798;9.928;2022-10-16T14:48:04;3.50;;;2.10;;
19623;SDS011;9959;49.798;9.928;2022-10-16T14:50:45;2.92;;;2.17;;
19623;SDS011;9959;49.798;9.928;2022-10-16T14:53:13;6.03;;;2.55;;
19623;SDS011;9959;49.798;9.928;2022-10-16T14:55:43;5.47;;;2.30;;
19623;SDS011;9959;49.798;9.928;2022-10-16T14:58:13;4.72;;;2.20;;
19623;SDS011;9959;49.798;9.928;2022-10-16T15:00:44;4.97;;;2.70;;
19623;SDS011;9959;49.798;9.928;2022-10-16T15:03:12;7.68;;;2.70;;
19623;SDS011;9959;49.798;9.928;2022-10-16T15:05:40;8.65;;;3.10;;
19623;SDS011;9959;49.798;9.928;2022-10-16T15:08:09;8.60;;;2.80;;
19623;SDS011;9959;49.798;9.928;2022-10-16T15:10:39;5.88;;;2.38;;
19623;SDS011;9959;49.798;9.928;2022-10-16T15:13:12;2.55;;;1.92;;
19623;SDS011;9959;49.798;9.928;2022-10-16T15:15:42;6.53;;;2.10;;
19623;SDS011;9959;49.798;9.928;2022-10-16T15:18:11;6.32;;;2.53;;
19623;SDS011;9959;49.798;9.928;2022-10-16T15:20:41;4.10;;;2.40;;
19623;SDS011;9959;49.798;9.928;2022-10-16T15:23:12;7.00;;;2.35;;
19623;SDS011;9959;49.798;9.928;2022-10-16T15:25:43;6.78;;;2.08;;
19623;SDS011;9959;49.798;9.928;2022-10-16T15:28:14;8.05;;;3.10;;
19623;SDS011;9959;49.798;9.928;2022-10-16T15:30:43;4.55;;;2.30;;
19623;SDS011;9959;49.798;9.928;2022-10-16T15:33:13;6.75;;;2.60;;